createdAt,value
2018-04-19T00:01:50.829Z,62.17
2018-04-19T00:04:16.852Z,61.73
2018-04-19T00:06:42.900Z,62.03
2018-04-19T00:09:08.916Z,61.93
2018-04-19T00:11:34.996Z,61.86
2018-04-19T00:14:01.024Z,61.88
2018-04-19T00:16:27.103Z,61.97
2018-04-19T00:18:53.137Z,62.14
2018-04-19T00:21:19.131Z,62.39
2018-04-19T00:23:45.249Z,62.66
2018-04-19T00:26:11.290Z,62.30
2018-04-19T00:28:37.351Z,62.01
2018-04-19T00:31:03.419Z,62.13
2018-04-19T00:33:29.545Z,62.56
2018-04-19T00:35:55.585Z,62.54
2018-04-19T00:38:21.590Z,62.20
2018-04-19T00:40:47.630Z,62.25
2018-04-19T00:43:13.752Z,62.24
2018-04-19T00:45:39.732Z,62.57
2018-04-19T00:48:05.775Z,62.41
2018-04-19T00:50:31.830Z,62.70
2018-04-19T00:53:08.871Z,62.94
2018-04-19T00:55:34.872Z,62.81
2018-04-19T00:58:00.953Z,62.80
2018-04-19T01:00:26.997Z,62.95
2018-04-19T01:02:53.086Z,62.76
2018-04-19T01:05:19.186Z,62.91
2018-04-19T01:07:45.185Z,62.81
2018-04-19T01:10:11.217Z,63.15
2018-04-19T01:12:37.271Z,63.42
2018-04-19T01:15:04.394Z,63.17
2018-04-19T01:17:30.417Z,63.55
2018-04-19T01:19:56.465Z,63.07
2018-04-19T01:22:22.473Z,63.68
2018-04-19T01:24:48.527Z,63.74
2018-04-19T01:27:14.582Z,63.94
2018-04-19T01:29:40.611Z,63.63
2018-04-19T01:32:06.624Z,64.11
2018-04-19T01:34:32.623Z,63.92
2018-04-19T01:36:58.660Z,64.23
2018-04-19T01:39:24.671Z,64.53
2018-04-19T01:41:50.706Z,64.54
2018-04-19T01:44:16.742Z,64.65
2018-04-19T01:46:42.735Z,64.27
2018-04-19T01:49:08.770Z,64.87
2018-04-19T01:51:34.748Z,64.28
2018-04-19T01:54:00.751Z,64.42
2018-04-19T01:56:26.761Z,65.22
2018-04-19T01:58:52.794Z,64.09
2018-04-19T02:01:18.772Z,64.37
2018-04-19T02:03:44.756Z,65.06
2018-04-19T02:06:10.855Z,65.25
2018-04-19T02:08:36.846Z,65.47
2018-04-19T02:11:03.494Z,65.10
2018-04-19T02:13:29.581Z,65.80
2018-04-19T02:15:55.600Z,65.71
2018-04-19T02:18:21.609Z,65.62
2018-04-19T02:20:54.405Z,66.44
2018-04-19T02:23:20.422Z,66.16
2018-04-19T02:25:46.726Z,65.89
2018-04-19T02:28:12.751Z,65.91
2018-04-19T02:30:38.835Z,66.65
2018-04-19T02:33:04.829Z,66.73
2018-04-19T02:35:30.807Z,66.76
2018-04-19T02:37:56.829Z,65.69
2018-04-19T02:40:23.095Z,65.56
2018-04-19T02:42:49.190Z,65.92
2018-04-19T02:45:15.304Z,67.00
2018-04-19T02:47:41.304Z,67.05
2018-04-19T02:50:07.313Z,66.52
2018-04-19T02:52:33.502Z,67.11
2018-04-19T02:54:59.585Z,66.94
2018-04-19T02:57:25.572Z,66.79
2018-04-19T02:59:51.632Z,67.17
2018-04-19T03:02:17.748Z,67.27
2018-04-19T03:04:43.859Z,67.09
2018-04-19T03:07:09.900Z,67.25
2018-04-19T03:09:35.916Z,67.32
2018-04-19T03:12:02.049Z,67.09
2018-04-19T03:14:28.215Z,67.26
2018-04-19T03:16:54.606Z,67.77
2018-04-19T03:19:20.834Z,67.88
2018-04-19T03:21:46.857Z,68.20
2018-04-19T03:24:12.841Z,67.62
2018-04-19T03:26:38.853Z,68.51
2018-04-19T03:29:04.900Z,67.85
2018-04-19T03:31:30.891Z,67.79
2018-04-19T03:33:56.888Z,68.34
2018-04-19T03:36:22.937Z,67.76
2018-04-19T03:38:48.938Z,69.43
2018-04-19T03:41:14.939Z,68.74
2018-04-19T03:43:40.995Z,68.52
2018-04-19T03:46:07.035Z,68.35
2018-04-19T03:48:33.336Z,68.41
2018-04-19T03:50:59.712Z,68.95
2018-04-19T03:53:25.873Z,69.19
2018-04-19T03:55:51.976Z,69.36
2018-04-19T03:58:18.004Z,69.02
2018-04-19T04:00:44.026Z,69.82
2018-04-19T04:03:10.013Z,69.06
2018-04-19T04:05:36.028Z,69.38
2018-04-19T04:08:02.035Z,69.66
2018-04-19T04:10:28.123Z,70.11
2018-04-19T04:12:54.165Z,69.74
2018-04-19T04:15:20.170Z,69.83
2018-04-19T04:17:58.369Z,70.92
2018-04-19T04:20:36.397Z,69.96
2018-04-19T04:23:14.493Z,69.86
2018-04-19T04:25:40.487Z,69.99
2018-04-19T04:28:06.537Z,70.13
2018-04-19T04:30:32.564Z,70.06
2018-04-19T04:32:58.596Z,70.31
2018-04-19T04:35:24.613Z,70.14
2018-04-19T04:37:50.627Z,70.46
2018-04-19T04:40:16.657Z,70.56
2018-04-19T04:42:42.670Z,70.29
2018-04-19T04:45:08.697Z,70.73
2018-04-19T04:47:34.682Z,70.67
2018-04-19T04:50:00.688Z,70.59
2018-04-19T04:52:26.668Z,71.00
2018-04-19T04:54:52.865Z,71.35
2018-04-19T04:57:18.891Z,71.27
2018-04-19T04:59:44.942Z,71.16
2018-04-19T05:02:10.990Z,70.96
2018-04-19T05:04:36.981Z,71.11
2018-04-19T05:07:03.047Z,71.47
2018-04-19T05:09:29.098Z,71.08
2018-04-19T05:11:55.157Z,70.99
2018-04-19T05:14:21.174Z,71.08
2018-04-19T05:16:47.176Z,71.63
2018-04-19T05:19:13.373Z,70.71
2018-04-19T05:21:39.432Z,70.89
2018-04-19T05:24:06.913Z,71.96
2018-04-19T05:26:33.498Z,71.02
2018-04-19T05:28:59.544Z,71.60
2018-04-19T05:31:25.546Z,71.65
2018-04-19T05:33:51.597Z,71.97
2018-04-19T05:36:17.678Z,71.84
2018-04-19T05:38:43.879Z,71.83
2018-04-19T05:41:10.373Z,72.02
2018-04-19T05:43:36.501Z,71.61
2018-04-19T05:46:02.521Z,71.00
2018-04-19T05:48:28.529Z,71.10
2018-04-19T05:50:54.601Z,71.47
2018-04-19T05:53:20.589Z,70.98
2018-04-19T05:55:46.599Z,70.60
2018-04-19T05:58:12.617Z,69.87
2018-04-19T06:00:38.675Z,69.86
2018-04-19T06:03:04.766Z,69.19
2018-04-19T06:05:30.735Z,68.58
2018-04-19T06:07:56.718Z,68.62
2018-04-19T06:10:22.787Z,67.55
2018-04-19T06:12:48.776Z,67.32
2018-04-19T06:15:15.079Z,67.28
2018-04-19T06:17:41.123Z,66.82
2018-04-19T06:20:07.489Z,66.40
2018-04-19T06:22:33.536Z,66.44
2018-04-19T06:24:59.643Z,65.82
2018-04-19T06:27:25.716Z,65.16
2018-04-19T06:29:51.938Z,64.65
2018-04-19T06:32:18.091Z,64.44
2018-04-19T06:34:44.079Z,63.80
2018-04-19T06:37:11.496Z,64.15
2018-04-19T06:39:37.524Z,63.17
2018-04-19T06:42:03.773Z,63.38
2018-04-19T06:44:29.925Z,62.60
2018-04-19T06:46:56.082Z,63.16
2018-04-19T06:49:22.184Z,62.92
2018-04-19T06:51:48.231Z,61.80
2018-04-19T06:54:14.328Z,62.13
2018-04-19T06:56:40.745Z,61.28
2018-04-19T06:59:06.758Z,60.06
2018-04-19T07:03:51.541Z,58.87
2018-04-19T07:06:17.709Z,58.54
2018-04-19T07:08:44.673Z,58.48
2018-04-19T07:11:11.079Z,58.52
2018-04-19T07:13:37.678Z,58.00
2018-04-19T07:16:03.808Z,57.38
2018-04-19T07:18:29.883Z,57.53
2018-04-19T07:20:55.933Z,57.50
2018-04-19T07:23:22.928Z,55.98
2018-04-19T07:25:48.978Z,56.06
2018-04-19T07:28:14.946Z,54.78
2018-04-19T07:30:41.055Z,54.85
2018-04-19T07:33:07.068Z,54.14
2018-04-19T07:35:33.077Z,54.53
2018-04-19T07:37:59.084Z,53.42
2018-04-19T07:40:25.085Z,51.81
2018-04-19T07:42:51.088Z,51.58
2018-04-19T07:45:17.162Z,51.70
2018-04-19T07:47:43.133Z,51.63
2018-04-19T07:50:09.158Z,49.23
2018-04-19T07:52:35.368Z,47.89
2018-04-19T07:55:01.385Z,49.67
2018-04-19T07:57:27.414Z,47.62
2018-04-19T07:59:53.470Z,48.74
2018-04-19T08:02:19.547Z,47.20
2018-04-19T08:04:45.642Z,47.28
2018-04-19T08:07:11.693Z,46.95
2018-04-19T08:09:37.828Z,46.01
2018-04-19T08:12:04.158Z,44.19
2018-04-19T08:14:30.254Z,44.29
2018-04-19T08:16:56.241Z,44.03
2018-04-19T08:19:22.273Z,42.79
2018-04-19T08:21:48.347Z,44.17
2018-04-19T08:24:14.420Z,39.76
2018-04-19T08:26:40.474Z,41.92
2018-04-19T08:29:06.489Z,42.48
2018-04-19T08:31:32.524Z,40.97
2018-04-19T08:33:58.523Z,39.91
2018-04-19T08:36:24.526Z,40.70
2018-04-19T08:38:50.540Z,37.73
2018-04-19T08:41:16.610Z,36.35
2018-04-19T08:43:42.673Z,37.03
2018-04-19T08:46:08.639Z,36.32
2018-04-19T08:48:34.672Z,37.24
2018-04-19T08:51:00.740Z,35.66
2018-04-19T08:53:26.749Z,35.03
2018-04-19T08:55:52.788Z,34.13
2018-04-19T08:58:18.788Z,33.38
2018-04-19T09:00:44.816Z,33.74
2018-04-19T09:03:10.879Z,34.41
2018-04-19T09:05:36.907Z,34.68
2018-04-19T09:08:02.945Z,32.59
2018-04-19T09:10:28.996Z,32.72
2018-04-19T09:12:55.007Z,34.19
2018-04-19T09:15:21.002Z,32.97
2018-04-19T09:17:47.063Z,33.15
2018-04-19T09:20:13.040Z,32.53
2018-04-19T09:22:39.078Z,32.36
2018-04-19T09:25:05.124Z,32.39
2018-04-19T09:27:31.241Z,31.76
2018-04-19T09:29:57.263Z,32.02
2018-04-19T09:32:23.299Z,31.60
2018-04-19T09:34:49.345Z,30.88
2018-04-19T09:37:15.371Z,30.27
2018-04-19T09:39:41.535Z,31.21
2018-04-19T09:42:07.544Z,29.30
2018-04-19T09:44:33.584Z,27.75
2018-04-19T09:46:59.680Z,29.04
2018-04-19T09:49:25.798Z,27.35
2018-04-19T09:51:52.153Z,28.14
2018-04-19T09:54:18.296Z,30.58
2018-04-19T09:56:44.292Z,29.22
2018-04-19T09:59:12.093Z,27.09
2018-04-19T10:01:44.076Z,27.76
2018-04-19T10:04:13.100Z,26.01
2018-04-19T10:06:39.165Z,26.38
2018-04-19T10:09:05.268Z,27.16
2018-04-19T10:11:31.367Z,26.75
2018-04-19T10:13:57.452Z,25.97
2018-04-19T10:16:23.905Z,27.88
2018-04-19T10:18:50.022Z,27.62
2018-04-19T10:21:16.032Z,25.41
2018-04-19T10:23:42.084Z,26.32
2018-04-19T10:26:08.122Z,26.78
2018-04-19T10:28:34.213Z,23.68
2018-04-19T10:31:00.217Z,23.76
2018-04-19T10:33:26.287Z,24.45
2018-04-19T10:35:52.375Z,23.30
2018-04-19T10:38:18.413Z,22.05
2018-04-19T10:40:44.461Z,22.98
2018-04-19T10:43:10.648Z,22.73
2018-04-19T10:45:36.699Z,21.65
2018-04-19T10:48:02.780Z,21.63
2018-04-19T10:50:28.801Z,19.73
2018-04-19T10:52:54.816Z,20.62
2018-04-19T10:55:20.791Z,18.62
2018-04-19T10:57:46.802Z,19.99
2018-04-19T11:00:12.835Z,20.06
2018-04-19T11:02:38.822Z,18.59
2018-04-19T11:05:04.883Z,19.44
2018-04-19T11:07:30.915Z,19.14
2018-04-19T11:09:56.977Z,19.34
2018-04-19T11:12:22.964Z,18.33
2018-04-19T11:14:48.972Z,18.35
2018-04-19T11:17:14.998Z,19.34
2018-04-19T11:19:41.037Z,18.96
2018-04-19T11:22:07.064Z,18.67
2018-04-19T11:24:33.077Z,19.34
2018-04-19T11:26:59.117Z,18.29
2018-04-19T11:29:25.202Z,18.49
2018-04-19T11:31:51.188Z,19.30
2018-04-19T11:34:17.236Z,18.36
2018-04-19T11:36:44.002Z,17.86
2018-04-19T11:39:10.284Z,18.23
2018-04-19T11:41:36.367Z,17.57
2018-04-19T11:44:02.437Z,17.96
2018-04-19T11:46:28.417Z,18.33
2018-04-19T11:48:54.511Z,17.66
2018-04-19T11:51:20.579Z,18.26
2018-04-19T11:53:46.621Z,17.58
2018-04-19T11:56:12.663Z,17.74
2018-04-19T11:58:38.693Z,18.83
2018-04-19T12:01:04.767Z,18.11
2018-04-19T12:03:31.013Z,17.63
2018-04-19T12:05:57.084Z,17.33
2018-04-19T12:08:23.957Z,18.16
2018-04-19T12:10:50.153Z,18.05
2018-04-19T12:13:16.235Z,17.47
2018-04-19T12:15:42.257Z,17.28
2018-04-19T12:18:08.259Z,17.02
2018-04-19T12:20:34.636Z,17.54
2018-04-19T12:23:00.737Z,15.91
2018-04-19T12:25:26.717Z,16.95
2018-04-19T12:27:52.727Z,17.49
2018-04-19T12:30:18.813Z,16.85
2018-04-19T12:32:44.902Z,16.30
2018-04-19T12:35:11.012Z,16.47
2018-04-19T12:37:37.113Z,16.55
2018-04-19T12:40:03.094Z,17.57
2018-04-19T12:42:29.144Z,17.92
2018-04-19T12:44:55.194Z,17.10
2018-04-19T12:47:21.329Z,16.73
2018-04-19T12:49:47.385Z,15.73
2018-04-19T12:52:13.364Z,16.14
2018-04-19T12:54:39.416Z,15.10
2018-04-19T12:57:05.532Z,16.20
2018-04-19T12:59:31.529Z,15.46
2018-04-19T13:01:57.535Z,15.92
2018-04-19T13:04:24.047Z,15.78
2018-04-19T13:06:50.152Z,15.07
2018-04-19T13:09:16.220Z,14.87
2018-04-19T13:11:42.267Z,14.61
2018-04-19T13:14:08.306Z,14.74
2018-04-19T13:16:34.406Z,15.52
2018-04-19T13:19:00.479Z,16.10
2018-04-19T13:21:26.549Z,15.37
2018-04-19T13:23:52.589Z,16.01
2018-04-19T13:26:18.623Z,16.15
2018-04-19T13:28:44.675Z,15.57
2018-04-19T13:31:10.678Z,15.79
2018-04-19T13:33:36.710Z,15.91
2018-04-19T13:36:03.311Z,16.34
2018-04-19T13:38:29.315Z,15.76
2018-04-19T13:40:55.367Z,15.39
2018-04-19T13:43:21.402Z,15.96
2018-04-19T13:45:47.590Z,14.91
2018-04-19T13:48:13.813Z,15.64
2018-04-19T13:50:39.832Z,15.52
2018-04-19T13:53:05.865Z,16.25
2018-04-19T13:55:31.959Z,15.91
2018-04-19T13:57:58.161Z,14.91
2018-04-19T14:00:24.181Z,15.57
2018-04-19T14:02:50.186Z,15.46
2018-04-19T14:05:16.318Z,15.60
2018-04-19T14:07:42.371Z,16.35
2018-04-19T14:10:08.368Z,15.51
2018-04-19T14:12:34.400Z,14.33
2018-04-19T14:15:00.553Z,15.03
2018-04-19T14:17:26.589Z,15.00
2018-04-19T14:19:52.805Z,15.61
2018-04-19T14:22:18.835Z,15.43
2018-04-19T14:24:45.451Z,14.95
2018-04-19T14:27:11.468Z,14.83
2018-04-19T14:29:37.525Z,14.70
2018-04-19T14:32:03.579Z,15.42
2018-04-19T14:34:29.654Z,14.67
2018-04-19T14:36:55.745Z,15.16
2018-04-19T14:39:21.795Z,14.71
2018-04-19T14:41:47.882Z,15.86
2018-04-19T14:44:13.897Z,16.20
2018-04-19T14:46:40.033Z,17.10
2018-04-19T14:49:06.040Z,16.97
2018-04-19T14:51:32.086Z,16.94
2018-04-19T14:53:58.176Z,16.89
2018-04-19T14:56:24.249Z,18.61
2018-04-19T14:58:50.257Z,19.75
2018-04-19T15:01:16.325Z,20.51
2018-04-19T15:03:42.402Z,22.04
2018-04-19T15:06:08.456Z,22.43
2018-04-19T15:08:34.572Z,22.33
2018-04-19T15:11:00.612Z,23.65
2018-04-19T15:13:26.637Z,23.63
2018-04-19T15:15:52.687Z,23.93
2018-04-19T15:18:18.669Z,25.12
2018-04-19T15:20:44.710Z,24.79
2018-04-19T15:23:10.725Z,24.96
2018-04-19T15:25:36.747Z,25.98
2018-04-19T15:28:02.798Z,27.10
2018-04-19T15:30:28.830Z,26.89
2018-04-19T15:32:55.009Z,25.41
2018-04-19T15:35:21.008Z,26.88
2018-04-19T15:37:47.093Z,26.77
2018-04-19T15:40:13.117Z,26.48
2018-04-19T15:42:39.118Z,25.98
2018-04-19T15:45:05.109Z,22.73
2018-04-19T15:47:31.204Z,19.01
2018-04-19T15:49:57.277Z,17.52
2018-04-19T15:52:23.257Z,17.04
2018-04-19T15:54:49.397Z,16.81
2018-04-19T15:57:15.442Z,17.72
2018-04-19T15:59:41.470Z,17.21
2018-04-19T16:02:08.281Z,16.39
2018-04-19T16:04:34.263Z,16.37
2018-04-19T16:07:00.390Z,18.06
2018-04-19T16:09:26.500Z,20.01
2018-04-19T16:11:53.083Z,21.92
2018-04-19T16:14:18.601Z,22.02
2018-04-19T16:16:44.661Z,19.92
2018-04-19T16:19:10.995Z,18.16
2018-04-19T16:21:36.987Z,17.62
2018-04-19T16:24:03.166Z,17.58
2018-04-19T16:26:29.267Z,17.40
2018-04-19T16:28:55.377Z,19.68
2018-04-19T16:31:21.353Z,22.96
2018-04-19T16:33:47.372Z,24.37
2018-04-19T16:36:13.561Z,25.98
2018-04-19T16:38:39.600Z,26.91
2018-04-19T16:41:05.689Z,28.17
2018-04-19T16:43:31.723Z,28.01
2018-04-19T16:45:57.852Z,28.10
2018-04-19T16:48:23.903Z,28.65
2018-04-19T16:50:49.904Z,29.31
2018-04-19T16:53:15.960Z,29.53
2018-04-19T16:55:42.067Z,29.25
2018-04-19T16:58:08.065Z,29.71
2018-04-19T17:00:34.121Z,30.32
2018-04-19T17:03:00.141Z,30.45
2018-04-19T17:05:26.283Z,30.19
2018-04-19T17:07:52.279Z,30.87
2018-04-19T17:10:18.305Z,30.84
2018-04-19T17:12:44.505Z,31.00
2018-04-19T17:15:10.585Z,31.66
2018-04-19T17:17:36.585Z,32.33
2018-04-19T17:20:02.690Z,31.87
2018-04-19T17:22:28.712Z,33.12
2018-04-19T17:24:54.708Z,33.18
2018-04-19T17:27:20.728Z,32.75
2018-04-19T17:29:46.750Z,32.99
2018-04-19T17:32:12.763Z,33.74
2018-04-19T17:34:38.770Z,34.15
2018-04-19T17:37:04.771Z,34.35
2018-04-19T17:39:30.776Z,34.45
2018-04-19T17:41:56.813Z,34.26
2018-04-19T17:44:22.843Z,34.17
2018-04-19T17:46:48.890Z,34.91
2018-04-19T17:49:14.911Z,35.12
2018-04-19T17:51:40.961Z,34.53
2018-04-19T17:54:06.993Z,35.02
2018-04-19T17:56:33.025Z,35.54
2018-04-19T17:58:59.038Z,36.18
2018-04-19T18:01:25.104Z,36.46
2018-04-19T18:03:51.168Z,36.04
2018-04-19T18:06:18.013Z,35.92
2018-04-19T18:08:44.113Z,36.15
2018-04-19T18:11:10.216Z,36.21
2018-04-19T18:13:36.234Z,36.91
2018-04-19T18:16:02.319Z,37.43
2018-04-19T18:18:28.502Z,37.24
2018-04-19T18:20:54.523Z,37.43
2018-04-19T18:23:20.543Z,37.24
2018-04-19T18:25:46.572Z,37.33
2018-04-19T18:28:12.604Z,37.43
2018-04-19T18:30:38.626Z,37.20
2018-04-19T18:33:04.707Z,37.56
2018-04-19T18:35:30.764Z,38.20
2018-04-19T18:37:56.816Z,38.51
2018-04-19T18:40:22.825Z,38.94
2018-04-19T18:42:48.808Z,39.03
2018-04-19T18:45:14.846Z,39.01
2018-04-19T18:47:40.856Z,39.12
2018-04-19T18:50:06.858Z,40.29
2018-04-19T18:52:32.939Z,40.07
2018-04-19T18:54:58.963Z,39.80
2018-04-19T18:57:24.956Z,39.63
2018-04-19T18:59:50.947Z,39.97
2018-04-19T19:02:16.973Z,40.28
2018-04-19T19:04:43.114Z,40.24
2018-04-19T19:07:09.177Z,40.85
2018-04-19T19:09:35.236Z,41.06
2018-04-19T19:12:01.269Z,41.53
2018-04-19T19:14:27.445Z,41.32
2018-04-19T19:16:53.522Z,41.41
2018-04-19T19:19:31.827Z,41.01
2018-04-19T19:21:58.616Z,41.05
2018-04-19T19:24:24.628Z,41.17
2018-04-19T19:26:50.628Z,41.25
2018-04-19T19:29:16.653Z,41.87
2018-04-19T19:31:42.695Z,41.32
2018-04-19T19:34:08.720Z,41.53
2018-04-19T19:36:34.756Z,41.97
2018-04-19T19:39:00.822Z,41.89
2018-04-19T19:41:26.884Z,42.85
2018-04-19T19:43:52.920Z,43.18
2018-04-19T19:46:19.000Z,43.43
2018-04-19T19:48:45.022Z,43.75
2018-04-19T19:51:11.043Z,43.71
2018-04-19T19:53:37.072Z,43.64
2018-04-19T19:56:03.106Z,43.72
2018-04-19T19:58:29.155Z,44.03
2018-04-19T20:00:55.196Z,44.21
2018-04-19T20:03:21.214Z,44.76
2018-04-19T20:05:47.363Z,45.18
2018-04-19T20:08:13.328Z,44.73
2018-04-19T20:10:39.433Z,44.99
2018-04-19T20:13:05.456Z,45.76
2018-04-19T20:15:31.536Z,46.68
2018-04-19T20:17:57.661Z,45.87
2018-04-19T20:20:23.697Z,46.03
2018-04-19T20:22:49.725Z,46.37
2018-04-19T20:25:15.852Z,46.74
2018-04-19T20:27:41.948Z,46.83
2018-04-19T20:30:08.136Z,47.12
2018-04-19T20:32:34.098Z,47.39
2018-04-19T20:35:00.174Z,47.65
2018-04-19T20:37:26.288Z,47.69
2018-04-19T20:39:52.349Z,47.90
2018-04-19T20:42:18.378Z,48.10
2018-04-19T20:44:44.508Z,48.33
2018-04-19T20:47:10.605Z,48.33
2018-04-19T20:49:36.661Z,49.41
2018-04-19T20:52:02.867Z,48.91
2018-04-19T20:54:28.895Z,49.39
2018-04-19T20:56:54.946Z,49.65
2018-04-19T20:59:20.969Z,49.80
2018-04-19T21:01:46.975Z,49.66
2018-04-19T21:04:13.030Z,49.92
2018-04-19T21:06:39.059Z,49.05
2018-04-19T21:09:05.202Z,49.06
2018-04-19T21:11:31.232Z,49.27
2018-04-19T21:13:57.246Z,49.19
2018-04-19T21:16:23.281Z,49.31
2018-04-19T21:18:49.305Z,49.44
2018-04-19T21:21:15.331Z,49.67
2018-04-19T21:23:41.336Z,50.22
2018-04-19T21:26:07.385Z,50.47
2018-04-19T21:28:33.449Z,51.91
2018-04-19T21:30:59.522Z,51.03
2018-04-19T21:33:25.593Z,51.34
2018-04-19T21:35:51.620Z,51.34
2018-04-19T21:38:17.781Z,51.61
2018-04-19T21:40:43.912Z,51.93
2018-04-19T21:43:09.980Z,51.81
2018-04-19T21:45:36.014Z,52.10
2018-04-19T21:48:02.156Z,52.37
2018-04-19T21:50:28.196Z,52.78
2018-04-19T21:52:54.273Z,52.76
2018-04-19T21:55:20.300Z,52.78
2018-04-19T21:57:46.346Z,53.47
2018-04-19T22:00:12.516Z,53.70
2018-04-19T22:02:38.580Z,53.65
2018-04-19T22:05:04.600Z,53.88
2018-04-19T22:07:30.614Z,55.23
2018-04-19T22:09:56.644Z,55.18
2018-04-19T22:12:22.700Z,55.09
2018-04-19T22:14:48.716Z,55.17
2018-04-19T22:17:14.784Z,55.46
2018-04-19T22:19:40.851Z,55.79
2018-04-19T22:22:06.897Z,55.99
2018-04-19T22:24:33.004Z,56.62
2018-04-19T22:26:59.051Z,57.46
2018-04-19T22:29:25.108Z,56.98
2018-04-19T22:31:51.140Z,58.80
2018-04-19T22:34:17.143Z,59.78
2018-04-19T22:36:43.136Z,58.32
2018-04-19T22:39:09.213Z,58.14
2018-04-19T22:41:35.323Z,58.43
2018-04-19T22:44:01.660Z,58.50
2018-04-19T22:46:27.680Z,59.23
2018-04-19T22:48:53.688Z,58.94
2018-04-19T22:51:20.631Z,58.70
2018-04-19T22:53:46.685Z,60.03
2018-04-19T22:56:12.719Z,61.65
2018-04-19T22:58:38.828Z,60.23
2018-04-19T23:01:04.836Z,61.24
2018-04-19T23:03:30.868Z,60.66
2018-04-19T23:05:56.872Z,62.49
2018-04-19T23:08:22.927Z,62.67
2018-04-19T23:10:48.984Z,61.34
2018-04-19T23:13:14.990Z,61.63
2018-04-19T23:15:41.058Z,62.75
2018-04-19T23:18:07.085Z,63.59
2018-04-19T23:20:33.158Z,62.92
2018-04-19T23:22:59.222Z,63.36
2018-04-19T23:25:25.292Z,65.03
2018-04-19T23:27:51.296Z,63.52
2018-04-19T23:30:17.401Z,63.65
2018-04-19T23:32:43.505Z,65.18
2018-04-19T23:35:09.537Z,64.94
2018-04-19T23:37:35.567Z,63.85
2018-04-19T23:40:01.991Z,64.43
2018-04-19T23:42:28.964Z,63.85
2018-04-19T23:44:55.010Z,63.88
2018-04-19T23:47:21.003Z,63.45
2018-04-19T23:49:47.033Z,64.25
2018-04-19T23:52:13.135Z,64.04
2018-04-19T23:54:39.171Z,64.14
2018-04-19T23:57:05.238Z,64.09
2018-04-19T23:59:31.270Z,64.25
